createdAt,value
2022-12-25T00:01:14.639Z,31.15
2022-12-25T00:03:41.741Z,32.72
2022-12-25T00:06:08.756Z,34.30
2022-12-25T00:08:35.697Z,29.15
2022-12-25T00:11:07.297Z,33.47
2022-12-25T00:13:34.065Z,35.80
2022-12-25T00:16:00.969Z,27.75
2022-12-25T00:18:27.797Z,30.40
2022-12-25T00:20:58.336Z,36.15
2022-12-25T00:23:25.277Z,29.10
2022-12-25T00:25:52.676Z,23.55
2022-12-25T00:28:19.736Z,29.92
2022-12-25T00:30:46.618Z,24.63
2022-12-25T00:33:13.536Z,33.38
2022-12-25T00:35:40.383Z,27.10
2022-12-25T00:38:07.319Z,27.20
2022-12-25T00:40:34.098Z,27.95
2022-12-25T00:43:00.877Z,29.10
2022-12-25T00:45:27.757Z,27.90
2022-12-25T00:47:54.623Z,28.42
2022-12-25T00:50:21.517Z,27.05
2022-12-25T00:52:48.258Z,28.63
2022-12-25T00:55:15.156Z,25.97
2022-12-25T00:57:41.983Z,32.60
2022-12-25T01:00:10.632Z,30.02
2022-12-25T01:02:37.613Z,25.10
2022-12-25T01:05:05.800Z,29.23
2022-12-25T01:07:32.591Z,25.77
2022-12-25T01:10:17.701Z,29.70
2022-12-25T01:12:44.601Z,27.42
2022-12-25T01:15:11.507Z,26.90
2022-12-25T01:17:38.276Z,30.27
2022-12-25T01:20:05.518Z,25.43
2022-12-25T01:22:32.340Z,32.60
2022-12-25T01:24:59.116Z,27.85
2022-12-25T01:27:25.927Z,30.27
2022-12-25T01:29:52.706Z,32.25
2022-12-25T01:32:19.540Z,30.67
2022-12-25T01:34:49.336Z,32.28
2022-12-25T01:37:20.687Z,24.70
2022-12-25T01:39:47.679Z,25.63
2022-12-25T01:42:18.637Z,26.05
2022-12-25T01:44:48.657Z,33.13
2022-12-25T01:47:15.726Z,30.08
2022-12-25T01:49:43.256Z,29.23
2022-12-25T01:52:24.580Z,31.98
2022-12-25T01:54:57.366Z,30.77
2022-12-25T01:57:29.268Z,33.63
2022-12-25T01:59:56.442Z,31.17
2022-12-25T02:02:23.477Z,31.50
2022-12-25T02:05:17.973Z,29.02
2022-12-25T02:07:45.380Z,33.03
2022-12-25T02:10:12.237Z,31.17
2022-12-25T02:12:39.330Z,32.60
2022-12-25T02:15:27.686Z,31.33
2022-12-25T02:17:57.339Z,30.65
2022-12-25T02:20:42.043Z,31.95
2022-12-25T02:23:29.784Z,30.13
2022-12-25T02:26:15.473Z,31.50
2022-12-25T02:28:47.781Z,31.13
2022-12-25T02:31:29.704Z,36.72
2022-12-25T02:34:05.376Z,36.45
2022-12-25T02:36:55.600Z,37.10
2022-12-25T02:39:51.258Z,34.10
2022-12-25T02:43:02.776Z,37.08
2022-12-25T02:46:08.512Z,38.38
2022-12-25T02:48:55.677Z,33.67
2022-12-25T02:51:41.856Z,30.77
2022-12-25T02:54:30.575Z,39.47
2022-12-25T02:57:15.744Z,30.73
2022-12-25T03:00:02.034Z,39.28
2022-12-25T03:02:47.238Z,39.72
2022-12-25T03:05:35.374Z,37.93
2022-12-25T03:08:04.741Z,34.20
2022-12-25T03:10:50.263Z,41.95
2022-12-25T03:13:20.790Z,35.53
2022-12-25T03:16:06.063Z,38.35
2022-12-25T03:18:32.877Z,28.37
2022-12-25T03:21:17.983Z,34.47
2022-12-25T03:24:06.396Z,36.17
2022-12-25T03:26:51.577Z,35.50
2022-12-25T03:29:36.880Z,38.20
2022-12-25T03:32:28.947Z,39.53
2022-12-25T03:35:23.620Z,42.90
2022-12-25T03:38:30.704Z,41.53
2022-12-25T03:41:53.638Z,36.72
2022-12-25T03:44:49.279Z,35.33
2022-12-25T03:47:35.804Z,37.23
2022-12-25T03:50:33.379Z,38.85
2022-12-25T03:53:20.111Z,37.00
2022-12-25T03:56:05.318Z,32.70
2022-12-25T03:58:50.516Z,35.17
2022-12-25T04:01:35.876Z,34.40
2022-12-25T04:04:21.305Z,35.03
2022-12-25T04:07:06.657Z,42.00
2022-12-25T04:09:51.722Z,43.80
2022-12-25T04:12:37.060Z,38.10
2022-12-25T04:15:22.459Z,38.17
2022-12-25T04:18:11.115Z,29.63
2022-12-25T04:20:56.373Z,36.35
2022-12-25T04:23:41.669Z,36.58
2022-12-25T04:26:26.840Z,37.45
2022-12-25T04:29:11.979Z,34.67
2022-12-25T04:31:57.100Z,32.25
2022-12-25T04:34:42.336Z,29.95
2022-12-25T04:37:09.160Z,32.33
2022-12-25T04:39:35.917Z,33.38
2022-12-25T04:42:02.745Z,34.47
2022-12-25T04:44:29.541Z,27.85
2022-12-25T04:46:56.526Z,36.40
2022-12-25T04:49:23.502Z,31.48
2022-12-25T04:51:50.280Z,28.88
2022-12-25T04:54:17.088Z,27.63
2022-12-25T04:56:45.914Z,29.58
2022-12-25T04:59:13.141Z,33.90
2022-12-25T05:01:40.045Z,29.52
2022-12-25T05:04:07.140Z,28.50
2022-12-25T05:06:33.967Z,29.03
2022-12-25T05:09:00.776Z,31.65
2022-12-25T05:11:27.763Z,27.75
2022-12-25T05:13:54.557Z,28.92
2022-12-25T05:16:21.595Z,27.98
2022-12-25T05:18:49.478Z,27.77
2022-12-25T05:21:16.339Z,25.88
2022-12-25T05:23:48.764Z,27.65
2022-12-25T05:26:16.751Z,25.23
2022-12-25T05:28:43.629Z,26.52
2022-12-25T05:31:10.738Z,28.50
2022-12-25T05:33:37.579Z,24.13
2022-12-25T05:36:08.609Z,24.98
2022-12-25T05:38:35.421Z,24.60
2022-12-25T05:41:02.301Z,25.00
2022-12-25T05:43:29.288Z,25.20
2022-12-25T05:45:56.101Z,25.40
2022-12-25T05:48:23.002Z,28.98
2022-12-25T05:50:49.891Z,24.73
2022-12-25T05:53:16.704Z,24.23
2022-12-25T05:55:46.379Z,24.53
2022-12-25T05:58:13.558Z,22.65
2022-12-25T06:00:40.479Z,24.33
2022-12-25T06:03:07.383Z,27.38
2022-12-25T06:05:34.244Z,21.52
2022-12-25T06:08:01.027Z,23.27
2022-12-25T06:10:27.839Z,25.42
2022-12-25T06:12:54.760Z,27.38
2022-12-25T06:15:21.537Z,26.88
2022-12-25T06:17:48.305Z,22.00
2022-12-25T06:20:15.158Z,25.73
2022-12-25T06:22:41.917Z,24.45
2022-12-25T06:25:09.491Z,22.63
2022-12-25T06:27:36.321Z,25.27
2022-12-25T06:30:04.078Z,27.70
2022-12-25T06:32:30.898Z,25.23
2022-12-25T06:34:57.657Z,25.00
2022-12-25T06:37:24.464Z,29.45
2022-12-25T06:39:51.224Z,26.23
2022-12-25T06:42:18.232Z,26.63
2022-12-25T06:44:45.050Z,24.87
2022-12-25T06:47:11.857Z,25.30
2022-12-25T06:49:38.717Z,30.48
2022-12-25T06:52:05.540Z,26.70
2022-12-25T06:54:32.393Z,29.40
2022-12-25T06:56:59.211Z,24.63
2022-12-25T06:59:26.020Z,29.88
2022-12-25T07:01:54.835Z,32.30
2022-12-25T07:04:40.863Z,27.45
2022-12-25T07:07:09.217Z,29.38
2022-12-25T07:09:36.476Z,28.67
2022-12-25T07:12:13.311Z,29.55
2022-12-25T07:14:40.149Z,28.25
2022-12-25T07:17:06.914Z,33.55
2022-12-25T07:19:34.674Z,26.05
2022-12-25T07:22:02.943Z,33.07
2022-12-25T07:24:29.756Z,35.05
2022-12-25T07:26:56.558Z,29.35
2022-12-25T07:29:23.299Z,27.65
2022-12-25T07:31:50.218Z,27.48
2022-12-25T07:34:17.737Z,29.27
2022-12-25T07:36:44.585Z,30.90
2022-12-25T07:39:11.979Z,31.98
2022-12-25T07:41:38.865Z,30.30
2022-12-25T07:44:05.658Z,31.42
2022-12-25T07:46:32.457Z,35.67
2022-12-25T07:48:59.220Z,39.35
2022-12-25T07:51:26.017Z,34.65
2022-12-25T07:53:52.782Z,30.45
2022-12-25T07:56:20.592Z,39.53
2022-12-25T07:58:47.455Z,29.30
2022-12-25T08:01:20.306Z,37.47
2022-12-25T08:03:51.441Z,34.92
2022-12-25T08:06:18.494Z,38.65
2022-12-25T08:08:45.458Z,35.50
2022-12-25T08:11:12.309Z,32.00
2022-12-25T08:13:39.292Z,33.65
2022-12-25T08:16:10.508Z,29.98
2022-12-25T08:18:37.939Z,35.88
2022-12-25T08:21:06.689Z,39.35
2022-12-25T08:23:37.998Z,31.47
2022-12-25T08:26:05.938Z,32.42
2022-12-25T08:28:33.489Z,34.42
2022-12-25T08:31:00.422Z,37.85
2022-12-25T08:33:27.243Z,42.92
2022-12-25T08:35:54.100Z,32.63
2022-12-25T08:38:20.928Z,37.70
2022-12-25T08:40:47.731Z,37.17
2022-12-25T08:43:14.523Z,37.78
2022-12-25T08:45:41.430Z,36.05
2022-12-25T08:48:08.302Z,37.40
2022-12-25T08:50:35.085Z,37.08
2022-12-25T08:53:01.886Z,31.75
2022-12-25T08:55:28.771Z,35.45
2022-12-25T08:57:55.598Z,35.55
2022-12-25T09:00:22.599Z,38.40
2022-12-25T09:02:49.529Z,41.08
2022-12-25T09:05:16.542Z,38.15
2022-12-25T09:07:43.361Z,38.10
2022-12-25T09:10:10.688Z,39.05
2022-12-25T09:12:37.450Z,36.80
2022-12-25T09:15:04.897Z,37.45
2022-12-25T09:17:32.197Z,36.25
2022-12-25T09:19:59.023Z,39.38
2022-12-25T09:22:25.825Z,43.42
2022-12-25T09:24:52.837Z,36.00
2022-12-25T09:27:19.643Z,44.13
2022-12-25T09:29:46.426Z,42.80
2022-12-25T09:32:13.243Z,41.95
2022-12-25T09:34:40.023Z,41.00
2022-12-25T09:37:06.835Z,45.83
2022-12-25T09:39:33.621Z,41.95
2022-12-25T09:42:02.577Z,42.10
2022-12-25T09:44:32.571Z,41.30
2022-12-25T09:47:06.946Z,46.97
2022-12-25T09:49:55.283Z,44.87
2022-12-25T09:53:07.990Z,41.05
2022-12-25T09:55:37.912Z,37.28
2022-12-25T09:58:11.433Z,42.30
2022-12-25T10:00:43.243Z,40.28
2022-12-25T10:03:13.159Z,44.93
2022-12-25T10:05:58.323Z,40.95
2022-12-25T10:08:35.418Z,39.17
2022-12-25T10:11:32.950Z,46.90
2022-12-25T10:14:18.501Z,39.00
2022-12-25T10:17:03.119Z,44.97
2022-12-25T10:20:14.418Z,44.15
2022-12-25T10:22:45.917Z,48.70
2022-12-25T10:25:20.840Z,49.25
2022-12-25T10:27:50.958Z,44.03
2022-12-25T10:30:22.545Z,43.10
2022-12-25T10:32:49.574Z,43.55
2022-12-25T10:35:19.089Z,45.47
2022-12-25T10:37:48.887Z,46.95
2022-12-25T10:40:24.642Z,44.83
2022-12-25T10:42:57.617Z,47.47
2022-12-25T10:45:24.406Z,46.20
2022-12-25T10:47:59.532Z,51.20
2022-12-25T10:50:28.882Z,37.85
2022-12-25T10:53:09.445Z,49.50
2022-12-25T10:55:36.224Z,48.47
2022-12-25T10:58:03.103Z,46.88
2022-12-25T11:00:31.638Z,55.35
2022-12-25T11:02:59.060Z,58.25
2022-12-25T11:05:33.273Z,51.00
2022-12-25T11:08:01.081Z,51.80
2022-12-25T11:10:37.306Z,48.53
2022-12-25T11:13:07.804Z,50.33
2022-12-25T11:15:39.500Z,56.30
2022-12-25T11:18:22.568Z,60.15
2022-12-25T11:20:54.098Z,57.97
2022-12-25T11:23:22.701Z,52.78
2022-12-25T11:26:03.249Z,57.10
2022-12-25T11:28:31.801Z,55.83
2022-12-25T11:31:13.304Z,57.45
2022-12-25T11:34:02.738Z,52.67
2022-12-25T11:36:49.293Z,63.10
2022-12-25T11:39:37.565Z,61.03
2022-12-25T11:42:18.519Z,60.38
2022-12-25T11:45:04.437Z,56.75
2022-12-25T11:48:04.558Z,60.13
2022-12-25T11:50:51.843Z,61.05
2022-12-25T11:53:41.302Z,58.70
2022-12-25T11:56:28.196Z,61.38
2022-12-25T11:58:57.179Z,58.15
2022-12-25T12:01:45.778Z,60.93
2022-12-25T12:04:30.797Z,63.67
2022-12-25T12:07:04.200Z,59.75
2022-12-25T12:09:43.643Z,59.40
2022-12-25T12:12:16.896Z,59.45
2022-12-25T12:14:57.298Z,62.63
2022-12-25T12:17:24.060Z,55.95
2022-12-25T12:19:51.639Z,57.90
2022-12-25T12:22:27.661Z,53.40
2022-12-25T12:25:01.621Z,62.22
2022-12-25T12:27:37.809Z,61.17
2022-12-25T12:30:05.166Z,59.80
2022-12-25T12:32:49.441Z,63.00
2022-12-25T12:35:28.296Z,66.10
2022-12-25T12:38:06.929Z,60.60
2022-12-25T12:40:37.902Z,55.43
2022-12-25T12:43:05.355Z,63.75
2022-12-25T12:45:36.345Z,65.72
2022-12-25T12:48:14.148Z,62.58
2022-12-25T12:50:41.366Z,63.90
2022-12-25T12:53:28.539Z,67.93
2022-12-25T12:55:55.685Z,63.05
2022-12-25T12:58:36.386Z,61.58
2022-12-25T13:01:32.896Z,61.08
2022-12-25T13:04:25.478Z,62.70
2022-12-25T13:07:12.166Z,55.93
2022-12-25T13:09:38.869Z,63.53
2022-12-25T13:12:07.500Z,67.07
2022-12-25T13:14:34.695Z,67.07
2022-12-25T13:17:01.560Z,67.00
2022-12-25T13:19:28.779Z,59.77
2022-12-25T13:21:58.017Z,55.92
2022-12-25T13:24:29.341Z,65.95
2022-12-25T13:26:56.297Z,58.28
2022-12-25T13:29:36.877Z,60.53
2022-12-25T13:32:05.029Z,58.30
2022-12-25T13:34:36.758Z,60.20
2022-12-25T13:37:13.005Z,66.22
2022-12-25T13:39:44.405Z,53.55
2022-12-25T13:42:13.004Z,62.55
2022-12-25T13:44:39.680Z,62.27
2022-12-25T13:47:24.283Z,58.17
2022-12-25T13:49:52.277Z,55.53
2022-12-25T13:52:21.885Z,62.90
2022-12-25T13:54:55.817Z,64.15
2022-12-25T13:57:31.116Z,59.10
2022-12-25T13:59:58.093Z,55.92
2022-12-25T14:02:29.463Z,57.65
2022-12-25T14:04:56.439Z,59.35
2022-12-25T14:07:27.226Z,55.75
2022-12-25T14:09:56.740Z,57.27
2022-12-25T14:12:23.479Z,57.72
2022-12-25T14:14:50.775Z,62.10
2022-12-25T14:17:17.561Z,57.92
2022-12-25T14:19:44.403Z,55.35
2022-12-25T14:22:31.301Z,61.27
2022-12-25T14:24:58.181Z,59.38
2022-12-25T14:27:26.803Z,62.42
2022-12-25T14:29:55.712Z,56.00
2022-12-25T14:32:30.332Z,65.18
2022-12-25T14:35:02.816Z,50.57
2022-12-25T14:37:30.782Z,57.80
2022-12-25T14:40:02.236Z,54.65
2022-12-25T14:42:30.915Z,58.72
2022-12-25T14:45:24.918Z,64.03
2022-12-25T14:47:53.381Z,53.60
2022-12-25T14:50:27.204Z,55.33
2022-12-25T14:52:54.110Z,54.70
2022-12-25T14:55:22.621Z,56.58
2022-12-25T14:57:55.624Z,56.67
2022-12-25T15:00:23.058Z,52.33
2022-12-25T15:02:50.314Z,53.10
2022-12-25T15:05:36.714Z,57.90
2022-12-25T15:08:10.355Z,48.75
2022-12-25T15:13:25.258Z,52.00
2022-12-25T15:15:56.220Z,51.67
2022-12-25T15:18:23.196Z,55.70
2022-12-25T15:20:52.613Z,57.92
2022-12-25T15:23:20.593Z,50.83
2022-12-25T15:25:47.925Z,54.20
2022-12-25T15:28:14.861Z,53.78
2022-12-25T15:30:41.737Z,61.17
2022-12-25T15:33:14.324Z,52.33
2022-12-25T15:35:41.258Z,62.10
2022-12-25T15:38:08.096Z,56.60
2022-12-25T15:40:35.180Z,52.45
2022-12-25T15:43:06.447Z,59.63
2022-12-25T15:45:38.371Z,54.63
2022-12-25T15:48:05.236Z,53.92
2022-12-25T15:50:32.899Z,52.50
2022-12-25T15:52:59.703Z,60.17
2022-12-25T15:55:26.503Z,50.40
2022-12-25T15:57:54.755Z,48.90
2022-12-25T16:00:26.137Z,64.38
2022-12-25T16:02:53.623Z,56.47
2022-12-25T16:05:20.705Z,51.97
2022-12-25T16:07:47.619Z,54.33
2022-12-25T16:10:18.643Z,51.28
2022-12-25T16:12:45.561Z,56.30
2022-12-25T16:15:13.106Z,48.30
2022-12-25T16:17:40.010Z,54.65
2022-12-25T16:20:07.425Z,53.83
2022-12-25T16:22:40.074Z,61.35
2022-12-25T16:25:14.857Z,55.35
2022-12-25T16:27:41.661Z,50.53
2022-12-25T16:30:09.061Z,53.92
2022-12-25T16:32:35.869Z,51.45
2022-12-25T16:35:02.927Z,60.40
2022-12-25T16:37:29.795Z,57.42
2022-12-25T16:39:56.652Z,54.77
2022-12-25T16:42:23.477Z,52.15
2022-12-25T16:44:50.243Z,56.00
2022-12-25T16:47:17.609Z,57.15
2022-12-25T16:49:44.439Z,52.92
2022-12-25T16:52:11.260Z,56.90
2022-12-25T16:54:38.040Z,55.55
2022-12-25T16:57:04.825Z,55.17
2022-12-25T16:59:33.030Z,55.72
2022-12-25T17:02:00.016Z,58.22
2022-12-25T17:04:27.683Z,58.63
2022-12-25T17:06:54.466Z,53.25
2022-12-25T17:09:21.220Z,63.05
2022-12-25T17:11:48.048Z,55.10
2022-12-25T17:14:14.856Z,57.83
2022-12-25T17:16:41.719Z,56.53
2022-12-25T17:19:20.658Z,62.60
2022-12-25T17:21:47.496Z,55.80
2022-12-25T17:24:14.581Z,58.72
2022-12-25T17:26:41.751Z,61.90
2022-12-25T17:29:08.711Z,57.87
2022-12-25T17:31:35.570Z,57.55
2022-12-25T17:34:02.716Z,59.72
2022-12-25T17:36:29.589Z,60.30
2022-12-25T17:38:56.443Z,57.63
2022-12-25T17:41:23.254Z,51.63
2022-12-25T17:43:50.068Z,61.22
2022-12-25T17:46:22.215Z,62.58
2022-12-25T17:48:50.240Z,64.70
2022-12-25T17:51:18.986Z,56.17
2022-12-25T17:53:47.110Z,52.10
2022-12-25T17:56:14.083Z,61.72
2022-12-25T17:58:40.938Z,51.47
2022-12-25T18:01:08.857Z,48.70
2022-12-25T18:03:36.913Z,59.90
2022-12-25T18:06:04.710Z,58.13
2022-12-25T18:08:38.649Z,60.83
2022-12-25T18:11:08.581Z,59.47
2022-12-25T18:13:35.471Z,59.28
2022-12-25T18:16:03.358Z,58.60
2022-12-25T18:18:30.597Z,56.57
2022-12-25T18:20:57.479Z,56.88
2022-12-25T18:23:24.481Z,60.28
2022-12-25T18:25:51.241Z,54.97
2022-12-25T18:28:18.088Z,64.35
2022-12-25T18:30:45.467Z,52.43
2022-12-25T18:33:12.340Z,61.80
2022-12-25T18:35:40.256Z,64.03
2022-12-25T18:38:09.265Z,64.95
2022-12-25T18:40:47.217Z,60.85
2022-12-25T18:43:14.279Z,62.50
2022-12-25T18:45:41.604Z,61.13
2022-12-25T18:48:08.824Z,59.53
2022-12-25T18:50:36.709Z,64.80
2022-12-25T18:53:03.740Z,59.17
2022-12-25T18:55:30.643Z,57.60
2022-12-25T18:57:57.440Z,59.30
2022-12-25T19:00:24.369Z,64.80
2022-12-25T19:02:51.312Z,64.10
2022-12-25T19:05:18.381Z,60.83
2022-12-25T19:07:45.200Z,64.20
2022-12-25T19:10:12.020Z,64.35
2022-12-25T19:12:38.886Z,61.65
2022-12-25T19:15:06.323Z,60.50
2022-12-25T19:17:34.309Z,65.88
2022-12-25T19:20:01.239Z,66.13
2022-12-25T19:22:28.099Z,65.93
2022-12-25T19:24:54.899Z,63.80
2022-12-25T19:27:21.715Z,65.40
2022-12-25T19:29:49.076Z,67.05
2022-12-25T19:32:15.856Z,68.83
2022-12-25T19:34:42.631Z,65.40
2022-12-25T19:37:09.549Z,67.53
2022-12-25T19:39:36.343Z,69.90
2022-12-25T19:42:03.140Z,66.88
2022-12-25T19:44:29.997Z,70.43
2022-12-25T19:46:56.844Z,71.72
2022-12-25T19:49:23.637Z,67.22
2022-12-25T19:51:50.438Z,63.53
2022-12-25T19:54:20.667Z,76.03
2022-12-25T19:56:48.318Z,69.47
2022-12-25T19:59:15.308Z,69.45
2022-12-25T20:01:42.813Z,63.17
2022-12-25T20:04:10.011Z,66.57
2022-12-25T20:06:38.422Z,67.93
2022-12-25T20:09:07.218Z,78.10
2022-12-25T20:11:34.608Z,64.43
2022-12-25T20:14:01.643Z,54.28
2022-12-25T20:16:28.516Z,103.15
2022-12-25T20:18:56.624Z,57.55
2022-12-25T20:21:23.803Z,64.43
2022-12-25T20:23:51.932Z,73.97
2022-12-25T20:26:19.564Z,77.15
2022-12-25T20:28:46.441Z,67.60
2022-12-25T20:31:24.307Z,65.90
2022-12-25T20:33:51.117Z,63.27
2022-12-25T20:36:18.994Z,82.72
2022-12-25T20:38:45.863Z,56.58
2022-12-25T20:41:30.015Z,66.07
2022-12-25T20:43:57.385Z,69.57
2022-12-25T20:46:25.062Z,75.60
2022-12-25T20:48:53.051Z,69.97
2022-12-25T20:51:24.996Z,76.65
2022-12-25T20:53:51.890Z,65.80
2022-12-25T20:56:19.648Z,97.70
2022-12-25T20:58:46.499Z,58.67
2022-12-25T21:01:15.138Z,74.25
2022-12-25T21:03:42.315Z,81.15
2022-12-25T21:06:09.520Z,92.97
2022-12-25T21:08:36.604Z,91.60
2022-12-25T21:11:04.158Z,80.43
2022-12-25T21:13:40.422Z,80.20
2022-12-25T21:16:09.567Z,93.43
2022-12-25T21:18:36.379Z,93.28
2022-12-25T21:21:05.826Z,82.88
2022-12-25T21:23:33.342Z,72.40
2022-12-25T21:26:00.160Z,94.03
2022-12-25T21:28:27.255Z,81.47
2022-12-25T21:30:54.183Z,89.95
2022-12-25T21:33:39.395Z,87.85
2022-12-25T21:36:07.803Z,92.83
2022-12-25T21:38:34.736Z,69.22
2022-12-25T21:41:09.550Z,86.60
2022-12-25T21:43:36.739Z,74.43
2022-12-25T21:46:13.353Z,113.97
2022-12-25T21:48:40.549Z,83.80
2022-12-25T21:51:36.891Z,97.05
2022-12-25T21:54:04.048Z,71.15
2022-12-25T21:56:31.901Z,93.65
2022-12-25T21:59:02.204Z,87.55
2022-12-25T22:01:29.493Z,74.87
2022-12-25T22:03:56.581Z,82.13
2022-12-25T22:06:41.798Z,89.35
2022-12-25T22:09:09.120Z,71.70
2022-12-25T22:11:54.309Z,76.22
2022-12-25T22:14:51.496Z,80.70
2022-12-25T22:17:58.321Z,76.70
2022-12-25T22:20:28.149Z,99.40
2022-12-25T22:22:55.038Z,83.32
2022-12-25T22:25:22.273Z,72.80
2022-12-25T22:27:49.520Z,81.00
2022-12-25T22:30:21.222Z,80.32
2022-12-25T22:32:48.198Z,60.63
2022-12-25T22:35:15.159Z,105.55
2022-12-25T22:37:42.215Z,67.32
2022-12-25T22:40:10.257Z,53.57
2022-12-25T22:42:37.108Z,95.25
2022-12-25T22:45:04.261Z,86.72
2022-12-25T22:47:31.149Z,84.82
2022-12-25T22:49:58.042Z,64.57
2022-12-25T22:52:24.994Z,88.80
2022-12-25T22:54:51.807Z,78.05
2022-12-25T22:57:18.706Z,84.22
2022-12-25T22:59:45.497Z,77.28
2022-12-25T23:02:12.341Z,89.88
2022-12-25T23:04:39.237Z,90.40
2022-12-25T23:07:06.099Z,82.15
2022-12-25T23:09:32.934Z,95.82
2022-12-25T23:11:59.879Z,90.15
2022-12-25T23:14:44.916Z,81.15
2022-12-25T23:17:31.180Z,108.10
2022-12-25T23:20:17.180Z,91.28
2022-12-25T23:23:02.421Z,74.95
2022-12-25T23:25:48.149Z,73.07
2022-12-25T23:28:34.919Z,75.45
2022-12-25T23:31:01.877Z,71.27
2022-12-25T23:33:28.727Z,92.78
2022-12-25T23:35:55.534Z,81.32
2022-12-25T23:38:22.461Z,79.28
2022-12-25T23:40:49.309Z,105.85
2022-12-25T23:43:16.080Z,73.17
2022-12-25T23:45:42.864Z,109.00
2022-12-25T23:48:09.686Z,97.05
2022-12-25T23:50:36.436Z,102.22
2022-12-25T23:53:03.258Z,116.95
2022-12-25T23:55:30.039Z,102.60
2022-12-25T23:57:56.941Z,106.32
